Time;durP1;ratioP1;P1;durP2;ratioP2;P2;SDS_P1;SDS_P2;PMS_P1;PMS_P2;Temp;Humidity;BMP_temperature;BMP_pressure;BME280_temperature;BME280_humidity;BME280_pressure;Samples;Min_cycle;Max_cycle;Signal;HPM_P1;HPM_P2
2024/03/29 00:01:47;;;;;;;11.38;5.47;;;;;;;;;;5066507;28;20032;-45
2024/03/29 00:04:13;;;;;;;14.13;6.05;;;;;;;;;;5058663;28;20035;-44
2024/03/29 00:06:38;;;;;;;12.38;5.35;;;;;;;;;;5065120;28;20043;-43
2024/03/29 00:09:04;;;;;;;14.10;5.20;;;;;;;;;;5066908;28;20028;-45
2024/03/29 00:11:31;;;;;;;12.63;5.68;;;;;;;;;;5065965;28;20036;-47
2024/03/29 00:13:57;;;;;;;13.48;5.70;;;;;;;;;;5064891;28;20028;-45
2024/03/29 00:16:25;;;;;;;12.23;5.63;;;;;;;;;;5067605;28;20067;-42
2024/03/29 00:18:51;;;;;;;9.70;4.85;;;;;;;;;;5064261;28;20173;-44
2024/03/29 00:21:17;;;;;;;15.98;5.80;;;;;;;;;;5065103;28;20716;-43
2024/03/29 00:23:45;;;;;;;12.32;5.35;;;;;;;;;;5046828;28;20033;-44
2024/03/29 00:26:11;;;;;;;12.45;4.97;;;;;;;;;;5056018;28;20462;-43
2024/03/29 00:28:37;;;;;;;14.77;5.60;;;;;;;;;;5057224;28;20122;-43
2024/03/29 00:31:03;;;;;;;12.45;5.25;;;;;;;;;;5067128;28;20161;-46
2024/03/29 00:33:29;;;;;;;12.45;5.50;;;;;;;;;;5067164;28;20578;-43
2024/03/29 00:35:54;;;;;;;13.13;5.82;;;;;;;;;;5065988;28;20120;-45
2024/03/29 00:38:20;;;;;;;17.63;6.10;;;;;;;;;;5047812;28;20028;-44
2024/03/29 00:40:46;;;;;;;12.98;5.40;;;;;;;;;;5081417;28;20044;-45
2024/03/29 00:43:12;;;;;;;13.18;6.20;;;;;;;;;;5066203;28;20040;-45
2024/03/29 00:45:40;;;;;;;14.93;5.78;;;;;;;;;;5028870;28;20048;-46
2024/03/29 00:48:06;;;;;;;19.00;5.53;;;;;;;;;;5067116;28;20556;-43
2024/03/29 00:50:32;;;;;;;18.92;5.80;;;;;;;;;;5054129;28;20033;-44
2024/03/29 00:52:57;;;;;;;13.23;4.95;;;;;;;;;;5066359;28;20036;-44
2024/03/29 00:55:23;;;;;;;12.55;5.88;;;;;;;;;;5046109;28;22106;-46
2024/03/29 00:57:49;;;;;;;16.33;6.55;;;;;;;;;;5047994;28;20759;-45
2024/03/29 01:00:15;;;;;;;13.95;5.65;;;;;;;;;;5064541;28;20045;-45
2024/03/29 01:02:40;;;;;;;15.15;5.78;;;;;;;;;;5057343;28;20075;-43
2024/03/29 01:05:07;;;;;;;13.15;5.78;;;;;;;;;;5063250;28;20077;-43
2024/03/29 01:07:32;;;;;;;15.05;5.97;;;;;;;;;;5062390;28;20039;-44
2024/03/29 01:09:58;;;;;;;10.52;4.93;;;;;;;;;;5063958;28;20507;-44
2024/03/29 01:12:24;;;;;;;14.70;5.55;;;;;;;;;;5064752;28;20047;-44
2024/03/29 01:14:50;;;;;;;16.38;6.38;;;;;;;;;;5064394;28;20043;-44
2024/03/29 01:17:16;;;;;;;13.52;6.00;;;;;;;;;;5062531;28;20044;-46
2024/03/29 01:19:42;;;;;;;14.18;5.65;;;;;;;;;;5063328;28;20497;-43
2024/03/29 01:22:08;;;;;;;14.77;5.28;;;;;;;;;;5061467;28;20040;-46
2024/03/29 01:24:34;;;;;;;13.50;5.55;;;;;;;;;;5044847;28;20515;-45
2024/03/29 01:27:00;;;;;;;12.18;5.75;;;;;;;;;;5056792;28;20056;-44
2024/03/29 01:29:27;;;;;;;16.55;6.63;;;;;;;;;;5046714;28;20069;-44
2024/03/29 01:31:53;;;;;;;16.10;6.55;;;;;;;;;;5062146;28;20041;-44
2024/03/29 01:34:18;;;;;;;11.50;5.35;;;;;;;;;;5062143;28;20044;-43
2024/03/29 01:36:44;;;;;;;17.42;6.10;;;;;;;;;;5065785;28;20040;-43
2024/03/29 01:39:14;;;;;;;19.95;6.43;;;;;;;;;;5064330;28;20041;-45
2024/03/29 01:41:40;;;;;;;14.93;6.85;;;;;;;;;;5053366;28;20051;-43
2024/03/29 01:44:06;;;;;;;17.77;6.75;;;;;;;;;;5055446;28;20042;-45
2024/03/29 01:46:35;;;;;;;17.02;6.47;;;;;;;;;;5046754;28;20036;-44
2024/03/29 01:49:01;;;;;;;15.93;6.45;;;;;;;;;;5061566;28;20029;-47
2024/03/29 01:51:27;;;;;;;15.50;6.43;;;;;;;;;;5059005;28;20045;-43
2024/03/29 01:53:54;;;;;;;17.20;6.15;;;;;;;;;;5059384;28;20790;-44
2024/03/29 01:56:22;;;;;;;16.55;6.07;;;;;;;;;;5066142;28;20047;-46
2024/03/29 01:58:53;;;;;;;12.63;5.85;;;;;;;;;;5058803;28;20057;-48
2024/03/29 02:01:19;;;;;;;13.60;6.50;;;;;;;;;;5045095;28;20490;-42
2024/03/29 02:03:45;;;;;;;17.88;6.53;;;;;;;;;;5054755;28;20033;-46
2024/03/29 02:06:12;;;;;;;16.23;6.03;;;;;;;;;;5046430;28;20055;-44
2024/03/29 02:08:38;;;;;;;17.67;7.05;;;;;;;;;;5065608;28;20132;-45
2024/03/29 02:11:04;;;;;;;15.07;7.25;;;;;;;;;;5061686;28;20126;-44
2024/03/29 02:13:29;;;;;;;14.43;7.03;;;;;;;;;;5064396;28;20511;-44
2024/03/29 02:15:55;;;;;;;18.73;6.65;;;;;;;;;;5030135;28;20036;-44
2024/03/29 02:18:21;;;;;;;15.60;6.75;;;;;;;;;;5064759;28;20029;-43
2024/03/29 02:20:47;;;;;;;20.83;7.10;;;;;;;;;;5060986;28;20036;-44
2024/03/29 02:23:18;;;;;;;18.83;7.22;;;;;;;;;;5062166;28;20047;-44
2024/03/29 02:25:46;;;;;;;16.73;7.20;;;;;;;;;;5045401;28;20041;-47
2024/03/29 02:28:16;;;;;;;16.27;7.25;;;;;;;;;;5040018;28;20069;-45
2024/03/29 02:30:41;;;;;;;16.30;7.18;;;;;;;;;;5046960;28;20603;-45
2024/03/29 02:33:07;;;;;;;15.07;6.43;;;;;;;;;;5063798;28;20040;-44
2024/03/29 02:35:33;;;;;;;19.33;8.00;;;;;;;;;;5064479;28;20045;-43
2024/03/29 02:37:59;;;;;;;16.35;6.32;;;;;;;;;;5063732;28;20070;-47
2024/03/29 02:40:24;;;;;;;15.27;6.70;;;;;;;;;;5063342;28;20036;-45
2024/03/29 02:42:50;;;;;;;15.70;6.82;;;;;;;;;;5062610;28;20110;-46
2024/03/29 02:45:19;;;;;;;18.52;7.15;;;;;;;;;;5057141;28;20063;-43
2024/03/29 02:47:44;;;;;;;18.88;7.13;;;;;;;;;;5064764;28;20115;-45
2024/03/29 02:50:10;;;;;;;16.25;6.97;;;;;;;;;;5065649;28;20166;-45
2024/03/29 02:52:36;;;;;;;12.93;6.22;;;;;;;;;;5061390;28;20158;-45
2024/03/29 02:55:02;;;;;;;19.48;6.60;;;;;;;;;;5064966;28;20043;-44
2024/03/29 02:57:30;;;;;;;14.15;6.97;;;;;;;;;;5063220;28;20037;-45
2024/03/29 02:59:56;;;;;;;19.00;6.85;;;;;;;;;;5042651;28;20041;-47
2024/03/29 03:02:22;;;;;;;17.48;6.93;;;;;;;;;;5059278;28;20033;-45
2024/03/29 03:04:47;;;;;;;15.93;6.88;;;;;;;;;;5060726;28;20036;-45
2024/03/29 03:12:42;;;;;;;14.73;7.15;;;;;;;;;;5060738;28;20104;-44
2024/03/29 03:15:08;;;;;;;16.75;7.15;;;;;;;;;;5064810;28;20068;-43
2024/03/29 03:17:34;;;;;;;14.98;6.50;;;;;;;;;;5065800;28;20071;-43
2024/03/29 03:19:59;;;;;;;13.73;7.93;;;;;;;;;;5061248;28;20039;-43
2024/03/29 03:22:25;;;;;;;19.27;7.65;;;;;;;;;;5073373;28;20067;-44
2024/03/29 03:24:51;;;;;;;21.63;7.20;;;;;;;;;;5048746;28;20036;-45
2024/03/29 03:27:16;;;;;;;17.25;7.10;;;;;;;;;;5056136;28;20063;-45
2024/03/29 03:29:42;;;;;;;19.23;8.73;;;;;;;;;;5061351;28;20056;-45
2024/03/29 03:32:08;;;;;;;15.60;7.03;;;;;;;;;;5060588;28;20439;-43
2024/03/29 03:34:34;;;;;;;13.60;6.57;;;;;;;;;;5065477;28;20036;-44
2024/03/29 03:37:00;;;;;;;15.85;7.63;;;;;;;;;;5068658;28;20036;-45
2024/03/29 03:39:26;;;;;;;16.15;6.43;;;;;;;;;;5067940;28;20418;-44
2024/03/29 03:41:51;;;;;;;17.85;6.97;;;;;;;;;;5065769;28;20075;-43
2024/03/29 03:44:17;;;;;;;17.90;7.70;;;;;;;;;;5064262;28;20111;-43
2024/03/29 03:46:43;;;;;;;17.42;7.18;;;;;;;;;;5080404;28;20127;-46
2024/03/29 03:49:09;;;;;;;19.92;7.10;;;;;;;;;;5038821;28;20124;-43
2024/03/29 03:51:35;;;;;;;18.52;6.75;;;;;;;;;;5055689;28;20128;-44
2024/03/29 03:54:01;;;;;;;15.95;7.68;;;;;;;;;;5074970;28;20036;-45
2024/03/29 03:56:27;;;;;;;17.08;7.13;;;;;;;;;;5065239;28;20032;-43
2024/03/29 03:58:52;;;;;;;17.63;7.60;;;;;;;;;;5066382;28;20608;-44
2024/03/29 04:01:18;;;;;;;19.35;7.78;;;;;;;;;;5065994;28;20495;-47
2024/03/29 04:03:44;;;;;;;20.38;7.05;;;;;;;;;;5049439;28;20538;-43
2024/03/29 04:06:10;;;;;;;17.95;7.15;;;;;;;;;;5072598;28;20032;-43
2024/03/29 04:08:35;;;;;;;15.43;6.63;;;;;;;;;;5076288;28;20036;-45
2024/03/29 04:11:04;;;;;;;15.35;7.03;;;;;;;;;;5058605;28;20028;-42
2024/03/29 04:13:30;;;;;;;15.20;7.10;;;;;;;;;;5076409;28;20033;-45
2024/03/29 04:16:02;;;;;;;16.55;7.13;;;;;;;;;;5073868;28;20048;-44
2024/03/29 04:18:28;;;;;;;22.35;7.18;;;;;;;;;;5073404;28;20024;-44
2024/03/29 04:21:00;;;;;;;16.42;6.50;;;;;;;;;;5059973;28;20065;-45
2024/03/29 04:23:26;;;;;;;16.90;7.43;;;;;;;;;;5069565;28;20049;-45
2024/03/29 04:25:52;;;;;;;13.63;6.10;;;;;;;;;;5046866;28;20070;-45
2024/03/29 04:28:18;;;;;;;15.13;6.97;;;;;;;;;;5057451;28;20063;-44
2024/03/29 04:30:50;;;;;;;16.58;7.30;;;;;;;;;;5064910;28;20048;-43
2024/03/29 04:33:16;;;;;;;15.27;6.55;;;;;;;;;;5065549;28;20044;-44
2024/03/29 04:35:50;;;;;;;16.65;7.10;;;;;;;;;;5067714;28;20101;-45
2024/03/29 04:38:15;;;;;;;13.93;7.35;;;;;;;;;;5066049;28;20047;-45
2024/03/29 04:40:41;;;;;;;17.05;7.40;;;;;;;;;;5072654;28;20044;-45
2024/03/29 04:43:07;;;;;;;18.15;6.72;;;;;;;;;;5065556;28;20044;-44
2024/03/29 04:45:33;;;;;;;15.07;7.20;;;;;;;;;;5058495;28;20059;-48
2024/03/29 04:48:02;;;;;;;14.18;6.68;;;;;;;;;;5064084;28;20040;-44
2024/03/29 04:50:28;;;;;;;17.73;6.10;;;;;;;;;;5066459;28;20032;-46
2024/03/29 04:52:54;;;;;;;18.52;6.30;;;;;;;;;;5064973;28;20036;-43
2024/03/29 04:55:19;;;;;;;16.38;6.55;;;;;;;;;;5064793;28;20032;-44
2024/03/29 04:57:45;;;;;;;11.68;6.28;;;;;;;;;;5067707;28;20036;-43
2024/03/29 05:00:11;;;;;;;13.48;6.55;;;;;;;;;;5050684;28;20037;-44
2024/03/29 05:02:37;;;;;;;16.65;7.10;;;;;;;;;;5047221;28;20104;-44
2024/03/29 05:05:04;;;;;;;18.90;6.85;;;;;;;;;;5047346;28;20033;-43
2024/03/29 05:07:30;;;;;;;23.30;6.68;;;;;;;;;;5029330;28;20033;-45
2024/03/29 05:09:56;;;;;;;16.30;7.18;;;;;;;;;;5061141;28;20393;-51
2024/03/29 05:12:21;;;;;;;17.00;6.18;;;;;;;;;;5064541;28;20509;-44
2024/03/29 05:14:49;;;;;;;18.40;7.00;;;;;;;;;;5065968;28;20033;-45
2024/03/29 05:17:15;;;;;;;21.13;6.53;;;;;;;;;;5046793;28;20067;-44
2024/03/29 05:19:41;;;;;;;14.63;6.25;;;;;;;;;;5063975;28;20068;-46
2024/03/29 05:22:06;;;;;;;17.48;6.57;;;;;;;;;;5058525;28;20067;-45
2024/03/29 05:24:32;;;;;;;13.57;6.45;;;;;;;;;;5044940;28;20040;-44
2024/03/29 05:26:58;;;;;;;19.15;6.22;;;;;;;;;;5054933;28;20590;-43
2024/03/29 05:29:24;;;;;;;17.83;6.28;;;;;;;;;;5057342;28;20060;-44
2024/03/29 05:31:49;;;;;;;11.93;7.10;;;;;;;;;;5062666;28;20036;-44
2024/03/29 05:34:15;;;;;;;20.13;6.40;;;;;;;;;;5064807;28;20538;-44
2024/03/29 05:36:41;;;;;;;16.15;6.40;;;;;;;;;;5067164;28;20048;-44
2024/03/29 05:39:06;;;;;;;24.90;6.72;;;;;;;;;;5064949;28;20036;-44
2024/03/29 05:41:32;;;;;;;23.73;7.93;;;;;;;;;;5063575;28;20049;-45
2024/03/29 05:43:58;;;;;;;18.02;7.15;;;;;;;;;;5047384;28;20904;-44
2024/03/29 05:46:24;;;;;;;22.55;6.70;;;;;;;;;;5058076;28;20082;-44
2024/03/29 05:48:49;;;;;;;22.77;6.60;;;;;;;;;;5056239;28;20404;-45
2024/03/29 05:51:15;;;;;;;13.05;6.03;;;;;;;;;;5059676;28;20710;-44
2024/03/29 05:53:41;;;;;;;11.65;5.93;;;;;;;;;;5062528;28;20037;-44
2024/03/29 05:56:07;;;;;;;15.20;5.93;;;;;;;;;;5064874;28;20803;-44
2024/03/29 05:58:33;;;;;;;20.98;7.15;;;;;;;;;;5064399;28;20060;-46
2024/03/29 06:00:59;;;;;;;22.60;6.13;;;;;;;;;;5047224;28;20082;-44
2024/03/29 06:03:25;;;;;;;15.02;6.03;;;;;;;;;;5063087;28;20515;-44
2024/03/29 06:05:51;;;;;;;15.27;6.40;;;;;;;;;;5055118;28;20032;-45
2024/03/29 06:08:17;;;;;;;15.27;5.72;;;;;;;;;;5064361;28;20326;-45
2024/03/29 06:10:44;;;;;;;16.90;6.30;;;;;;;;;;5048597;28;20032;-45
2024/03/29 06:13:27;;;;;;;17.65;6.32;;;;;;;;;;5063220;28;20028;-45
2024/03/29 06:18:37;;;;;;;23.17;6.53;;;;;;;;;;5065092;28;20066;-47
2024/03/29 06:21:03;;;;;;;18.88;6.07;;;;;;;;;;5060946;28;20508;-45
2024/03/29 06:23:29;;;;;;;15.90;5.95;;;;;;;;;;5042757;28;20056;-44
2024/03/29 06:25:55;;;;;;;15.82;6.85;;;;;;;;;;5055238;28;20048;-47
2024/03/29 06:28:21;;;;;;;21.55;5.47;;;;;;;;;;5063707;28;20060;-43
2024/03/29 06:30:46;;;;;;;15.82;5.05;;;;;;;;;;5049727;28;20119;-48
2024/03/29 06:33:12;;;;;;;15.65;6.20;;;;;;;;;;5057427;28;20419;-44
2024/03/29 06:35:38;;;;;;;17.30;5.75;;;;;;;;;;5072457;28;20036;-43
2024/03/29 06:38:04;;;;;;;14.80;5.75;;;;;;;;;;5074642;28;20566;-43
2024/03/29 06:40:29;;;;;;;18.27;5.47;;;;;;;;;;5039357;28;20033;-46
2024/03/29 06:42:58;;;;;;;10.75;5.40;;;;;;;;;;5072054;28;20114;-44
2024/03/29 06:45:23;;;;;;;14.30;6.00;;;;;;;;;;5065741;28;20043;-44
2024/03/29 06:47:49;;;;;;;15.18;6.18;;;;;;;;;;5073394;28;20039;-46
2024/03/29 06:50:15;;;;;;;15.82;5.80;;;;;;;;;;5065192;28;20081;-44
2024/03/29 06:52:40;;;;;;;19.85;5.55;;;;;;;;;;5060873;28;20040;-50
2024/03/29 06:55:07;;;;;;;16.65;5.75;;;;;;;;;;5064319;28;20064;-51
2024/03/29 06:57:34;;;;;;;15.25;5.63;;;;;;;;;;5061317;28;20041;-43
2024/03/29 07:00:01;;;;;;;13.20;5.07;;;;;;;;;;5064734;28;20063;-45
2024/03/29 07:02:27;;;;;;;12.15;4.95;;;;;;;;;;5064248;28;20075;-46
2024/03/29 07:04:53;;;;;;;14.63;5.30;;;;;;;;;;5065141;28;20054;-45
2024/03/29 07:07:19;;;;;;;15.05;5.35;;;;;;;;;;5060741;28;20424;-44
2024/03/29 07:09:45;;;;;;;16.60;5.70;;;;;;;;;;5067491;28;20060;-50
2024/03/29 07:12:10;;;;;;;13.65;5.05;;;;;;;;;;5069338;28;20080;-44
2024/03/29 07:14:36;;;;;;;10.63;4.22;;;;;;;;;;5065938;28;20074;-45
2024/03/29 07:17:03;;;;;;;18.25;5.40;;;;;;;;;;5065624;28;20028;-50
2024/03/29 07:19:28;;;;;;;15.95;5.53;;;;;;;;;;5050410;28;20032;-48
2024/03/29 07:21:54;;;;;;;16.00;4.97;;;;;;;;;;5064535;28;20051;-44
2024/03/29 07:24:20;;;;;;;17.88;6.68;;;;;;;;;;5062313;28;20040;-46
2024/03/29 07:26:46;;;;;;;14.10;5.07;;;;;;;;;;5064194;28;20045;-45
2024/03/29 07:29:11;;;;;;;12.43;4.50;;;;;;;;;;5063872;28;20937;-47
2024/03/29 07:31:37;;;;;;;14.18;5.47;;;;;;;;;;5066033;28;20107;-48
2024/03/29 07:34:03;;;;;;;14.02;5.60;;;;;;;;;;5066679;28;20043;-44
2024/03/29 07:36:33;;;;;;;14.52;5.70;;;;;;;;;;5049535;28;20430;-44
2024/03/29 07:38:59;;;;;;;14.85;5.13;;;;;;;;;;5062845;28;20063;-44
2024/03/29 07:41:26;;;;;;;15.05;4.97;;;;;;;;;;5066997;28;20098;-48
2024/03/29 07:43:59;;;;;;;13.85;5.45;;;;;;;;;;5065461;28;20479;-46
2024/03/29 07:46:30;;;;;;;16.20;5.60;;;;;;;;;;5054310;28;20064;-46
2024/03/29 07:48:56;;;;;;;14.63;5.97;;;;;;;;;;5076364;28;20077;-49
2024/03/29 07:51:22;;;;;;;12.23;5.53;;;;;;;;;;5048907;28;20462;-46
2024/03/29 07:53:47;;;;;;;15.75;5.10;;;;;;;;;;5064837;28;20084;-49
2024/03/29 07:56:13;;;;;;;18.85;5.43;;;;;;;;;;5048205;28;20036;-47
2024/03/29 07:58:39;;;;;;;11.43;5.57;;;;;;;;;;5062347;28;20079;-48
2024/03/29 08:01:05;;;;;;;13.57;5.43;;;;;;;;;;5047476;28;20040;-46
2024/03/29 08:03:35;;;;;;;11.23;5.50;;;;;;;;;;5028999;28;20044;-45
2024/03/29 08:06:04;;;;;;;15.85;6.00;;;;;;;;;;5065792;28;20837;-46
2024/03/29 08:08:30;;;;;;;16.17;5.25;;;;;;;;;;5053207;28;20379;-44
2024/03/29 08:10:56;;;;;;;14.10;5.07;;;;;;;;;;5061944;28;20028;-47
2024/03/29 08:13:24;;;;;;;13.27;5.13;;;;;;;;;;5067029;28;20534;-44
2024/03/29 08:15:55;;;;;;;14.27;5.45;;;;;;;;;;5067176;28;20064;-44
2024/03/29 08:18:21;;;;;;;9.65;5.10;;;;;;;;;;5071516;28;20032;-47
2024/03/29 08:20:47;;;;;;;18.80;5.20;;;;;;;;;;5069803;28;20047;-46
2024/03/29 08:23:12;;;;;;;11.98;5.32;;;;;;;;;;5070208;28;20524;-44
2024/03/29 08:25:38;;;;;;;9.85;5.18;;;;;;;;;;5055673;28;20519;-46
2024/03/29 08:28:04;;;;;;;15.85;7.35;;;;;;;;;;5072965;28;20074;-48
2024/03/29 08:30:34;;;;;;;12.10;5.03;;;;;;;;;;5047633;28;20028;-46
2024/03/29 08:33:04;;;;;;;13.18;6.32;;;;;;;;;;5068218;28;20499;-46
2024/03/29 08:35:30;;;;;;;15.40;6.45;;;;;;;;;;5066571;28;20032;-44
2024/03/29 08:37:56;;;;;;;17.83;5.50;;;;;;;;;;5052638;28;20045;-44
2024/03/29 08:40:22;;;;;;;12.05;5.57;;;;;;;;;;5073907;28;20415;-45
2024/03/29 08:42:47;;;;;;;18.42;5.57;;;;;;;;;;5048666;28;20190;-46
2024/03/29 08:45:13;;;;;;;13.00;5.30;;;;;;;;;;5059379;28;20127;-48
2024/03/29 08:47:39;;;;;;;17.90;5.65;;;;;;;;;;5067200;28;20040;-45
2024/03/29 08:50:05;;;;;;;11.38;4.78;;;;;;;;;;5048070;28;20044;-44
2024/03/29 08:52:31;;;;;;;12.98;4.90;;;;;;;;;;5056348;28;20043;-45
2024/03/29 08:54:57;;;;;;;15.90;6.22;;;;;;;;;;5065333;28;20828;-44
2024/03/29 08:57:22;;;;;;;9.95;5.22;;;;;;;;;;5065071;28;20060;-45
2024/03/29 08:59:48;;;;;;;11.52;5.53;;;;;;;;;;5063689;28;20033;-46
2024/03/29 09:02:14;;;;;;;17.60;5.63;;;;;;;;;;5043178;28;20040;-44
2024/03/29 09:04:40;;;;;;;12.88;5.25;;;;;;;;;;5064664;28;20039;-44
2024/03/29 09:07:06;;;;;;;15.55;5.28;;;;;;;;;;5067451;28;20032;-44
2024/03/29 09:09:32;;;;;;;14.48;6.40;;;;;;;;;;5063923;28;20041;-45
2024/03/29 09:11:58;;;;;;;15.07;5.03;;;;;;;;;;5065147;28;20745;-45
2024/03/29 09:14:24;;;;;;;12.63;5.40;;;;;;;;;;5062028;28;20044;-47
2024/03/29 09:16:50;;;;;;;13.02;4.85;;;;;;;;;;5066855;28;20032;-44
2024/03/29 09:19:16;;;;;;;11.32;5.15;;;;;;;;;;5066055;28;20094;-44
2024/03/29 09:21:42;;;;;;;9.43;5.30;;;;;;;;;;5045683;28;20040;-45
2024/03/29 09:24:08;;;;;;;13.07;5.25;;;;;;;;;;5061008;28;20040;-47
2024/03/29 09:26:33;;;;;;;7.97;5.43;;;;;;;;;;5063391;28;20051;-45
2024/03/29 09:28:59;;;;;;;9.55;4.18;;;;;;;;;;5063287;28;20037;-46
2024/03/29 09:31:25;;;;;;;14.52;5.70;;;;;;;;;;5047104;28;20381;-44
2024/03/29 09:33:57;;;;;;;8.63;4.45;;;;;;;;;;5063644;28;20051;-45
2024/03/29 09:36:23;;;;;;;14.75;5.80;;;;;;;;;;5065719;28;20025;-45
2024/03/29 09:38:50;;;;;;;10.57;5.55;;;;;;;;;;5043988;28;20484;-45
2024/03/29 09:41:17;;;;;;;10.73;5.28;;;;;;;;;;5061803;28;20048;-46
2024/03/29 09:43:46;;;;;;;11.27;5.38;;;;;;;;;;5055023;28;20189;-45
2024/03/29 09:46:12;;;;;;;;;;;;;;;;;;5053967;28;20047;-46
2024/03/29 09:48:39;;;;;;;11.25;5.65;;;;;;;;;;5064194;28;19989;-45
2024/03/29 09:51:06;;;;;;;15.20;5.07;;;;;;;;;;5045395;28;20041;-44
2024/03/29 09:53:42;;;;;;;12.32;5.28;;;;;;;;;;5051345;28;20045;-44
2024/03/29 09:56:08;;;;;;;11.77;5.68;;;;;;;;;;5049335;28;20029;-46
2024/03/29 09:58:34;;;;;;;10.57;5.60;;;;;;;;;;5063562;28;20429;-47
2024/03/29 10:01:04;;;;;;;15.27;4.85;;;;;;;;;;5050565;28;20496;-45
2024/03/29 10:03:31;;;;;;;13.95;6.05;;;;;;;;;;5040766;28;20516;-45
2024/03/29 10:05:57;;;;;;;14.57;6.55;;;;;;;;;;5056683;28;20501;-45
2024/03/29 10:08:23;;;;;;;11.02;5.78;;;;;;;;;;5044903;28;20032;-47
2024/03/29 10:10:49;;;;;;;9.25;5.68;;;;;;;;;;5048375;28;20070;-46
2024/03/29 10:13:14;;;;;;;12.23;5.72;;;;;;;;;;5062619;28;20040;-48
2024/03/29 10:15:45;;;;;;;13.80;6.18;;;;;;;;;;5056550;28;20531;-44
2024/03/29 10:18:11;;;;;;;15.85;6.30;;;;;;;;;;5045657;28;20085;-46
2024/03/29 10:20:37;;;;;;;14.80;6.15;;;;;;;;;;5030690;28;20036;-47
2024/03/29 10:23:03;;;;;;;11.55;6.43;;;;;;;;;;5047816;28;20739;-46
2024/03/29 10:25:33;;;;;;;12.13;6.07;;;;;;;;;;5058214;28;20419;-46
2024/03/29 10:28:01;;;;;;;12.57;6.80;;;;;;;;;;5061595;28;20075;-44
2024/03/29 10:30:27;;;;;;;14.27;5.40;;;;;;;;;;5030432;28;20039;-48
2024/03/29 10:32:55;;;;;;;12.35;6.15;;;;;;;;;;5062423;28;20037;-47
2024/03/29 10:35:20;;;;;;;12.70;6.55;;;;;;;;;;5064868;28;20074;-47
2024/03/29 10:37:46;;;;;;;19.45;7.13;;;;;;;;;;5060899;28;20205;-46
2024/03/29 10:40:15;;;;;;;13.38;7.00;;;;;;;;;;5065335;28;20466;-45
2024/03/29 10:42:41;;;;;;;11.25;6.80;;;;;;;;;;5066668;28;20063;-46
2024/03/29 10:45:07;;;;;;;12.80;6.50;;;;;;;;;;5060011;28;20036;-46
2024/03/29 10:47:33;;;;;;;21.20;6.82;;;;;;;;;;5031353;28;20025;-48
2024/03/29 10:49:59;;;;;;;14.18;6.18;;;;;;;;;;5063425;28;20151;-46
2024/03/29 10:52:25;;;;;;;13.90;7.20;;;;;;;;;;5058193;28;20512;-47
2024/03/29 10:54:51;;;;;;;16.45;7.35;;;;;;;;;;5067842;28;20064;-47
2024/03/29 10:57:24;;;;;;;16.73;6.60;;;;;;;;;;5065695;28;20089;-46
2024/03/29 10:59:50;;;;;;;15.05;7.20;;;;;;;;;;5065788;28;20093;-48
2024/03/29 11:02:29;;;;;;;15.50;7.32;;;;;;;;;;5068938;28;20040;-45
2024/03/29 11:04:56;;;;;;;10.77;6.53;;;;;;;;;;5069073;28;20535;-50
2024/03/29 11:07:22;;;;;;;15.30;6.95;;;;;;;;;;5051281;28;20044;-47
2024/03/29 11:09:50;;;;;;;14.35;7.28;;;;;;;;;;5065590;28;20037;-48
2024/03/29 11:12:16;;;;;;;18.80;7.25;;;;;;;;;;5065441;28;20114;-48
2024/03/29 11:14:43;;;;;;;17.98;6.90;;;;;;;;;;5068980;28;20043;-45
2024/03/29 11:17:12;;;;;;;15.07;8.15;;;;;;;;;;5068719;28;20028;-47
2024/03/29 11:19:38;;;;;;;21.17;7.57;;;;;;;;;;5066793;28;20040;-46
2024/03/29 11:22:04;;;;;;;15.05;7.72;;;;;;;;;;5058096;28;20040;-45
2024/03/29 11:24:31;;;;;;;14.15;6.65;;;;;;;;;;5062985;28;20029;-44
2024/03/29 11:26:57;;;;;;;17.00;7.68;;;;;;;;;;5058017;28;20021;-45
2024/03/29 11:29:23;;;;;;;12.15;7.03;;;;;;;;;;5066170;28;20085;-47
2024/03/29 11:31:58;;;;;;;11.15;6.70;;;;;;;;;;5063994;28;20033;-45
2024/03/29 11:34:24;;;;;;;12.70;7.50;;;;;;;;;;5066244;28;20044;-48
2024/03/29 11:36:50;;;;;;;15.63;7.43;;;;;;;;;;5049285;28;20086;-46
2024/03/29 11:39:23;;;;;;;15.57;7.32;;;;;;;;;;5065927;28;20048;-46
2024/03/29 11:41:49;;;;;;;18.05;7.85;;;;;;;;;;5065100;28;20082;-47
2024/03/29 11:44:15;;;;;;;16.30;7.65;;;;;;;;;;5067444;28;20523;-48
2024/03/29 11:46:40;;;;;;;16.20;7.88;;;;;;;;;;5058166;28;20107;-46
2024/03/29 11:49:06;;;;;;;17.80;7.60;;;;;;;;;;5056903;28;20060;-48
2024/03/29 11:51:33;;;;;;;14.95;8.18;;;;;;;;;;5065359;28;20480;-47
2024/03/29 11:53:59;;;;;;;18.98;8.63;;;;;;;;;;5065480;28;20068;-46
2024/03/29 11:56:25;;;;;;;16.05;8.20;;;;;;;;;;5068622;28;20039;-44
2024/03/29 11:58:53;;;;;;;22.48;8.75;;;;;;;;;;5063711;28;20059;-45
2024/03/29 12:01:19;;;;;;;19.10;9.32;;;;;;;;;;5057369;28;20036;-50
2024/03/29 12:03:46;;;;;;;15.05;9.23;;;;;;;;;;5060007;28;20041;-48
2024/03/29 12:06:12;;;;;;;15.38;8.60;;;;;;;;;;5065171;28;20423;-43
2024/03/29 12:08:39;;;;;;;17.00;9.75;;;;;;;;;;5064458;28;20135;-44
2024/03/29 12:11:04;;;;;;;17.50;9.23;;;;;;;;;;5065199;28;20055;-45
2024/03/29 12:13:31;;;;;;;16.45;8.85;;;;;;;;;;5060726;28;20504;-46
2024/03/29 12:15:57;;;;;;;22.27;9.18;;;;;;;;;;5065759;28;20423;-45
2024/03/29 12:18:23;;;;;;;16.73;9.48;;;;;;;;;;5067584;28;20052;-46
2024/03/29 12:20:50;;;;;;;16.10;9.10;;;;;;;;;;5063888;28;20662;-46
2024/03/29 12:23:17;;;;;;;14.52;8.85;;;;;;;;;;5065292;28;20044;-48
2024/03/29 12:25:43;;;;;;;21.58;9.75;;;;;;;;;;5059248;28;20064;-47
2024/03/29 12:28:10;;;;;;;20.63;9.88;;;;;;;;;;5047891;28;20078;-45
2024/03/29 12:30:36;;;;;;;16.45;9.63;;;;;;;;;;5054282;28;20048;-47
2024/03/29 12:33:15;;;;;;;16.52;9.30;;;;;;;;;;5067650;28;20036;-46
2024/03/29 12:35:41;;;;;;;;;;;;;;;;;;5066019;28;20033;-44
2024/03/29 12:38:07;;;;;;;15.40;8.63;;;;;;;;;;5064913;28;19916;-43
2024/03/29 12:40:37;;;;;;;20.77;10.25;;;;;;;;;;5065679;28;20424;-45
2024/03/29 12:43:08;;;;;;;19.15;9.38;;;;;;;;;;5048742;28;20037;-49
2024/03/29 12:45:34;;;;;;;21.25;9.80;;;;;;;;;;5058113;28;20033;-48
2024/03/29 12:48:00;;;;;;;17.35;9.93;;;;;;;;;;5065839;28;20036;-51
2024/03/29 12:50:29;;;;;;;15.82;9.25;;;;;;;;;;5064533;28;20032;-45
2024/03/29 12:53:00;;;;;;;12.95;9.52;;;;;;;;;;5066766;28;20131;-46
2024/03/29 12:55:30;;;;;;;18.83;10.05;;;;;;;;;;5062397;28;20060;-44
2024/03/29 12:57:56;;;;;;;16.77;10.02;;;;;;;;;;5066150;28;20055;-49
2024/03/29 13:00:22;;;;;;;19.98;9.38;;;;;;;;;;5066348;28;20068;-46
2024/03/29 13:02:47;;;;;;;17.52;9.90;;;;;;;;;;5064862;28;20597;-50
2024/03/29 13:05:13;;;;;;;22.73;10.40;;;;;;;;;;5064652;28;20029;-46
2024/03/29 13:07:39;;;;;;;21.52;10.50;;;;;;;;;;5062613;28;20032;-48
2024/03/29 13:10:19;;;;;;;22.45;10.43;;;;;;;;;;5047536;28;20032;-47
2024/03/29 13:12:52;;;;;;;15.05;10.18;;;;;;;;;;5047024;28;20051;-47
2024/03/29 13:15:27;;;;;;;21.50;10.52;;;;;;;;;;5066495;28;20044;-46
2024/03/29 13:17:53;;;;;;;20.10;10.02;;;;;;;;;;5062995;28;20037;-46
2024/03/29 13:20:19;;;;;;;20.67;10.18;;;;;;;;;;5063196;28;20468;-47
2024/03/29 13:22:46;;;;;;;16.85;10.07;;;;;;;;;;5065613;28;20537;-44
2024/03/29 13:25:13;;;;;;;17.17;10.18;;;;;;;;;;5064109;28;20037;-48
2024/03/29 13:27:39;;;;;;;24.83;11.05;;;;;;;;;;5063041;28;20052;-47
2024/03/29 13:30:06;;;;;;;21.15;10.27;;;;;;;;;;5031459;28;20047;-46
2024/03/29 13:32:32;;;;;;;15.73;9.60;;;;;;;;;;5064701;28;20147;-47
2024/03/29 13:35:01;;;;;;;18.67;10.70;;;;;;;;;;5064428;28;20878;-44
2024/03/29 13:37:29;;;;;;;21.70;10.38;;;;;;;;;;5062515;28;20085;-50
2024/03/29 13:39:55;;;;;;;26.23;11.10;;;;;;;;;;5063612;28;20040;-44
2024/03/29 13:42:22;;;;;;;20.23;10.80;;;;;;;;;;5062470;28;20041;-45
2024/03/29 13:44:51;;;;;;;22.77;11.52;;;;;;;;;;5063038;28;20040;-45
2024/03/29 13:47:18;;;;;;;21.70;11.20;;;;;;;;;;5058806;28;20044;-49
2024/03/29 13:49:44;;;;;;;21.13;11.13;;;;;;;;;;5064896;28;20036;-44
2024/03/29 13:52:09;;;;;;;30.73;11.60;;;;;;;;;;5053419;28;20044;-46
2024/03/29 13:54:36;;;;;;;22.60;11.38;;;;;;;;;;5064001;28;20040;-50
2024/03/29 13:57:03;;;;;;;19.67;10.35;;;;;;;;;;5063662;28;20044;-47
2024/03/29 13:59:29;;;;;;;31.15;10.23;;;;;;;;;;5057033;28;20045;-47
2024/03/29 14:01:56;;;;;;;28.52;11.02;;;;;;;;;;5046106;28;20037;-47
2024/03/29 14:04:22;;;;;;;26.10;10.93;;;;;;;;;;5046818;28;20420;-47
2024/03/29 14:06:48;;;;;;;25.50;10.90;;;;;;;;;;5046080;28;20033;-47
2024/03/29 14:09:14;;;;;;;21.80;10.13;;;;;;;;;;5058493;28;20037;-47
2024/03/29 14:11:40;;;;;;;22.50;9.80;;;;;;;;;;5045588;28;20055;-50
2024/03/29 14:14:07;;;;;;;25.83;10.52;;;;;;;;;;5061262;28;20516;-47
2024/03/29 14:16:33;;;;;;;21.05;10.98;;;;;;;;;;5043614;28;20047;-45
2024/03/29 14:18:59;;;;;;;27.77;11.18;;;;;;;;;;5063824;28;20043;-46
2024/03/29 14:21:24;;;;;;;23.77;10.73;;;;;;;;;;5065872;28;20037;-47
2024/03/29 14:23:50;;;;;;;25.88;10.00;;;;;;;;;;5066428;28;20059;-44
2024/03/29 14:26:16;;;;;;;22.90;10.25;;;;;;;;;;5058620;28;20047;-48
2024/03/29 14:28:41;;;;;;;20.75;10.68;;;;;;;;;;5065706;28;20028;-45
2024/03/29 14:31:08;;;;;;;23.45;10.00;;;;;;;;;;5049476;28;20346;-45
2024/03/29 14:33:33;;;;;;;22.67;10.60;;;;;;;;;;5063999;28;20215;-46